Alexander, ME

11:52 PM EST on January 29, 2015 (GMT -0500)
HeatherWood Gardens | Change Station
CLOSE
Current Station
Personal Weather Station
Location: Baring, ME
Elevation: 110 ft
Nearby Weather Stations
Active Advisory: Winter Storm Warning

Elev 110 ft 45.13 °N, 67.32 °W | Updated 13 minutes ago

Clear
Clear
4.9 °F
Feels Like 5 °F
N
0.0
Wind Variable Wind from SW
Gusts 2.0 mph

Today
High -- | Low -- °F
--% Chance of Precip.
Yesterday
High -- | Low -- °F
Precip. -- in
6:53 AM 4:32 PM
Waxing Gibbous, 80% visible
Pressure 30.09 in
Visibility 10.0 miles
Clouds Clear
Windchill 5 °F
Dew Point 2 °F
Humidity 86%
Rainfall 0.00 in
Snow Depth Not available.
UV 0 out of 12
Pollen .10 out of 12
Air Quality Not available.
Flu Activity Not available.
METAR KBHB 300435Z 00000KT 10SM CLR M12/M12 A3009 RMK AO1

More Conditions Fewer Conditions

Pressure 30.09 in
Visibility 10.0 miles
Clouds Clear
Windchill 5 °F
Dew Point 2 °F
Humidity 86%
Rainfall 0.00 in
Snow Depth Not available.
UV 0 out of 12
Pollen .10 out of 12
Air Quality Not available.
Flu Activity Not available.
METAR KBHB 300435Z 00000KT 10SM CLR M12/M12 A3009 RMK AO1

More Conditions Fewer Conditions

10-Day Weather Forecast

Almanac

Astronomy

Jan. 29, 2015 Rise Set
Actual Time
Civil Twilight
Nautical Twilight
Astronomical Twilight
Moon
Length of Visible Light
Length of Day
Tomorrow will be .
, % of the Moon is Illuminated

Today's Extremes

State Highs State Lows

Community

WunderPhotos

Upload Photos

1,791,712 photos uploaded!

WunderBlogs® & News

Nearby

Air Quality

  Air Quality AQ Index Pollutant
Not available.

Snow Depth

Station Depth Elevation

Earthquake Activity

City Distance Mag. Time & Date
Minimum magnitude displayed is 2.5.

Coastal Water Temperatures

Place Temperature

Nearby Weather Stations